Alma, GA (31510)

11:18 AM EDT on September 05, 2015 (GMT -0400)
Bacon County | | Change Station
CLOSE
Current Station
Airport
Location: Alma,
Elevation: 200 ft
Nearby Weather Stations

Elev 200 ft 31.54 °N, 82.51 °W | Updated 25 minutes ago

Clear
Clear
83 °F
Feels Like 90 °F
N
9
Wind Variable Wind from East

Today
High -- | Low -- °F
--% Chance of Precip.
Yesterday
High -- | Low -- °F
Precip. -- in
7:07 AM 7:48 PM
Waning Gibbous, 48% visible
Pressure 30.07 in
Visibility 8.0 miles
Clouds Clear
Heat Index 90 °F
Dew Point 75 °F
Humidity 77%
Rainfall 0.00 in
Snow Depth Not available.
UV 7 out of 12
Pollen 6.80 out of 12
Air Quality Not available.
Flu Activity Not available.
METAR KAMG 051453Z AUTO 08008KT 8SM CLR 28/24 A3008 RMK AO2 SLP182 T02830239 51016
Pressure 30.07 in
Visibility 8.0 miles
Clouds Clear
Heat Index 90 °F
Dew Point 75 °F
Humidity 77%
Rainfall 0.00 in
Snow Depth Not available.
UV 7 out of 12
Pollen 6.80 out of 12
Air Quality Not available.
Flu Activity Not available.
METAR KAMG 051453Z AUTO 08008KT 8SM CLR 28/24 A3008 RMK AO2 SLP182 T02830239 51016

10-Day Weather Forecast

×

Almanac

Astronomy

Sep. 05, 2015 Rise Set
Actual Time
Civil Twilight
Nautical Twilight
Astronomical Twilight
Moon
Length of Visible Light
Length of Day
Tomorrow will be .
, % of the Moon is Illuminated

Today's Extremes

State Highs State Lows

Community

WunderPhotos

Upload Photos

1,852,480 photos uploaded!

WunderBlogs® & News

Nearby

Air Quality

  Air Quality AQ Index Pollutant
Not available.

Snow Depth

Station Depth Elevation

Earthquake Activity

City Distance Mag. Time & Date
Minimum magnitude displayed is 2.5.

Coastal Water Temperatures

Place Temperature

Stations

Nearby Weather Stations

Station Location Temp. Windchill Dew Point Humidity Wind Precip. Elev Updated Type